sensor_id;sensor_type;location;lat;lon;timestamp;P1;durP1;ratioP1;P2;durP2;ratioP2
62268;SDS011;56517;51.634;5.566;2023-03-17T00:03:54;20.25;;;9.75;;
62268;SDS011;56517;51.634;5.566;2023-03-17T00:09:16;21.30;;;9.98;;
62268;SDS011;56517;51.634;5.566;2023-03-17T00:14:37;10.05;;;7.47;;
62268;SDS011;56517;51.634;5.566;2023-03-17T00:19:58;22.90;;;9.82;;
62268;SDS011;56517;51.634;5.566;2023-03-17T00:25:21;20.08;;;9.45;;
62268;SDS011;56517;51.634;5.566;2023-03-17T00:30:43;29.65;;;11.27;;
62268;SDS011;56517;51.634;5.566;2023-03-17T00:36:04;22.73;;;10.07;;
62268;SDS011;56517;51.634;5.566;2023-03-17T00:41:26;27.98;;;10.60;;
62268;SDS011;56517;51.634;5.566;2023-03-17T00:46:47;21.30;;;9.85;;
62268;SDS011;56517;51.634;5.566;2023-03-17T00:52:08;28.13;;;11.07;;
62268;SDS011;56517;51.634;5.566;2023-03-17T00:57:29;26.17;;;11.23;;
62268;SDS011;56517;51.634;5.566;2023-03-17T01:02:50;11.82;;;8.05;;
62268;SDS011;56517;51.634;5.566;2023-03-17T01:08:12;25.58;;;10.90;;
62268;SDS011;56517;51.634;5.566;2023-03-17T01:13:33;31.55;;;11.63;;
62268;SDS011;56517;51.634;5.566;2023-03-17T01:18:54;23.90;;;10.30;;
62268;SDS011;56517;51.634;5.566;2023-03-17T01:24:15;31.15;;;11.10;;
62268;SDS011;56517;51.634;5.566;2023-03-17T01:29:36;26.65;;;10.98;;
62268;SDS011;56517;51.634;5.566;2023-03-17T01:34:57;24.58;;;9.52;;
62268;SDS011;56517;51.634;5.566;2023-03-17T01:40:20;16.13;;;8.45;;
62268;SDS011;56517;51.634;5.566;2023-03-17T01:57:05;13.37;;;8.57;;
62268;SDS011;56517;51.634;5.566;2023-03-17T02:02:30;18.92;;;9.20;;
62268;SDS011;56517;51.634;5.566;2023-03-17T02:07:51;13.20;;;8.30;;
62268;SDS011;56517;51.634;5.566;2023-03-17T02:13:13;15.45;;;8.80;;
62268;SDS011;56517;51.634;5.566;2023-03-17T02:18:34;21.23;;;9.43;;
62268;SDS011;56517;51.634;5.566;2023-03-17T02:23:55;12.57;;;8.23;;
62268;SDS011;56517;51.634;5.566;2023-03-17T02:29:17;16.90;;;9.15;;
62268;SDS011;56517;51.634;5.566;2023-03-17T02:34:38;17.70;;;8.88;;
62268;SDS011;56517;51.634;5.566;2023-03-17T02:39:59;24.55;;;10.10;;
62268;SDS011;56517;51.634;5.566;2023-03-17T02:45:21;29.08;;;11.13;;
62268;SDS011;56517;51.634;5.566;2023-03-17T02:50:43;19.40;;;9.23;;
62268;SDS011;56517;51.634;5.566;2023-03-17T02:56:04;12.60;;;7.65;;
62268;SDS011;56517;51.634;5.566;2023-03-17T03:01:24;23.98;;;9.98;;
62268;SDS011;56517;51.634;5.566;2023-03-17T03:06:46;21.90;;;9.90;;
62268;SDS011;56517;51.634;5.566;2023-03-17T03:12:07;18.33;;;8.57;;
62268;SDS011;56517;51.634;5.566;2023-03-17T03:17:29;24.90;;;10.45;;
62268;SDS011;56517;51.634;5.566;2023-03-17T03:22:50;7.80;;;6.57;;
62268;SDS011;56517;51.634;5.566;2023-03-17T03:28:12;14.00;;;8.25;;
62268;SDS011;56517;51.634;5.566;2023-03-17T03:33:33;13.82;;;7.63;;
62268;SDS011;56517;51.634;5.566;2023-03-17T03:38:54;16.63;;;8.23;;
62268;SDS011;56517;51.634;5.566;2023-03-17T03:44:15;26.42;;;10.57;;
62268;SDS011;56517;51.634;5.566;2023-03-17T03:49:36;22.40;;;10.18;;
62268;SDS011;56517;51.634;5.566;2023-03-17T03:54:56;19.30;;;8.73;;
62268;SDS011;56517;51.634;5.566;2023-03-17T04:00:17;24.05;;;9.82;;
62268;SDS011;56517;51.634;5.566;2023-03-17T04:05:39;15.68;;;8.95;;
62268;SDS011;56517;51.634;5.566;2023-03-17T04:11:00;12.10;;;8.25;;
62268;SDS011;56517;51.634;5.566;2023-03-17T04:16:21;14.25;;;9.05;;
62268;SDS011;56517;51.634;5.566;2023-03-17T04:21:42;15.25;;;8.45;;
62268;SDS011;56517;51.634;5.566;2023-03-17T04:27:03;12.05;;;8.05;;
62268;SDS011;56517;51.634;5.566;2023-03-17T04:32:24;18.52;;;8.50;;
62268;SDS011;56517;51.634;5.566;2023-03-17T04:37:45;15.02;;;9.02;;
62268;SDS011;56517;51.634;5.566;2023-03-17T04:43:06;22.65;;;9.80;;
62268;SDS011;56517;51.634;5.566;2023-03-17T04:48:27;14.70;;;8.30;;
62268;SDS011;56517;51.634;5.566;2023-03-17T04:53:48;12.82;;;8.05;;
62268;SDS011;56517;51.634;5.566;2023-03-17T04:59:09;20.67;;;9.27;;
62268;SDS011;56517;51.634;5.566;2023-03-17T05:04:30;18.80;;;8.65;;
62268;SDS011;56517;51.634;5.566;2023-03-17T05:09:51;15.82;;;7.88;;
62268;SDS011;56517;51.634;5.566;2023-03-17T05:15:12;19.10;;;8.98;;
62268;SDS011;56517;51.634;5.566;2023-03-17T05:20:32;19.90;;;8.48;;
62268;SDS011;56517;51.634;5.566;2023-03-17T05:25:53;14.13;;;8.10;;
62268;SDS011;56517;51.634;5.566;2023-03-17T05:31:14;14.25;;;8.43;;
62268;SDS011;56517;51.634;5.566;2023-03-17T05:36:35;16.65;;;8.75;;
62268;SDS011;56517;51.634;5.566;2023-03-17T05:41:57;18.45;;;8.98;;
62268;SDS011;56517;51.634;5.566;2023-03-17T05:47:18;23.48;;;9.80;;
62268;SDS011;56517;51.634;5.566;2023-03-17T05:52:39;25.73;;;10.30;;
62268;SDS011;56517;51.634;5.566;2023-03-17T05:57:59;17.65;;;9.02;;
62268;SDS011;56517;51.634;5.566;2023-03-17T06:03:21;24.05;;;9.52;;
62268;SDS011;56517;51.634;5.566;2023-03-17T06:08:41;23.60;;;9.73;;
62268;SDS011;56517;51.634;5.566;2023-03-17T06:14:02;13.45;;;8.80;;
62268;SDS011;56517;51.634;5.566;2023-03-17T06:19:23;18.40;;;9.27;;
62268;SDS011;56517;51.634;5.566;2023-03-17T06:24:44;19.17;;;9.20;;
62268;SDS011;56517;51.634;5.566;2023-03-17T06:30:06;16.08;;;8.82;;
62268;SDS011;56517;51.634;5.566;2023-03-17T06:35:28;9.93;;;7.80;;
62268;SDS011;56517;51.634;5.566;2023-03-17T06:40:49;11.23;;;8.05;;
62268;SDS011;56517;51.634;5.566;2023-03-17T06:46:10;17.25;;;9.32;;
62268;SDS011;56517;51.634;5.566;2023-03-17T06:51:31;11.40;;;7.75;;
62268;SDS011;56517;51.634;5.566;2023-03-17T06:56:52;10.38;;;7.70;;
62268;SDS011;56517;51.634;5.566;2023-03-17T07:02:13;16.45;;;9.25;;
62268;SDS011;56517;51.634;5.566;2023-03-17T07:07:34;21.25;;;9.18;;
62268;SDS011;56517;51.634;5.566;2023-03-17T07:12:56;11.18;;;7.40;;
62268;SDS011;56517;51.634;5.566;2023-03-17T07:18:17;16.23;;;8.13;;
62268;SDS011;56517;51.634;5.566;2023-03-17T07:23:38;12.88;;;8.13;;
62268;SDS011;56517;51.634;5.566;2023-03-17T07:28:59;12.48;;;7.68;;
62268;SDS011;56517;51.634;5.566;2023-03-17T07:34:20;17.80;;;8.30;;
62268;SDS011;56517;51.634;5.566;2023-03-17T07:39:41;16.70;;;8.65;;
62268;SDS011;56517;51.634;5.566;2023-03-17T07:45:04;15.07;;;8.77;;
62268;SDS011;56517;51.634;5.566;2023-03-17T07:50:25;21.67;;;10.20;;
62268;SDS011;56517;51.634;5.566;2023-03-17T07:55:46;17.33;;;8.98;;
62268;SDS011;56517;51.634;5.566;2023-03-17T08:01:07;19.02;;;8.85;;
62268;SDS011;56517;51.634;5.566;2023-03-17T08:06:29;15.73;;;8.55;;
62268;SDS011;56517;51.634;5.566;2023-03-17T08:11:50;16.00;;;8.43;;
62268;SDS011;56517;51.634;5.566;2023-03-17T08:17:11;9.93;;;7.25;;
62268;SDS011;56517;51.634;5.566;2023-03-17T08:22:33;12.98;;;8.00;;
62268;SDS011;56517;51.634;5.566;2023-03-17T08:27:54;25.27;;;10.85;;
62268;SDS011;56517;51.634;5.566;2023-03-17T08:33:15;23.33;;;9.80;;
62268;SDS011;56517;51.634;5.566;2023-03-17T08:38:36;15.85;;;8.55;;
62268;SDS011;56517;51.634;5.566;2023-03-17T08:43:57;18.52;;;8.93;;
62268;SDS011;56517;51.634;5.566;2023-03-17T08:49:19;15.02;;;7.88;;
62268;SDS011;56517;51.634;5.566;2023-03-17T08:54:41;11.35;;;7.35;;
62268;SDS011;56517;51.634;5.566;2023-03-17T09:00:03;19.08;;;7.75;;
62268;SDS011;56517;51.634;5.566;2023-03-17T09:05:30;14.40;;;6.85;;
62268;SDS011;56517;51.634;5.566;2023-03-17T09:10:52;14.68;;;6.65;;
62268;SDS011;56517;51.634;5.566;2023-03-17T09:16:14;11.93;;;7.18;;
62268;SDS011;56517;51.634;5.566;2023-03-17T09:21:36;11.43;;;6.53;;
62268;SDS011;56517;51.634;5.566;2023-03-17T09:26:58;20.27;;;9.88;;
62268;SDS011;56517;51.634;5.566;2023-03-17T09:32:20;10.07;;;6.57;;
62268;SDS011;56517;51.634;5.566;2023-03-17T09:37:42;20.13;;;9.32;;
62268;SDS011;56517;51.634;5.566;2023-03-17T09:43:06;14.60;;;7.70;;
62268;SDS011;56517;51.634;5.566;2023-03-17T09:48:43;14.02;;;7.78;;
62268;SDS011;56517;51.634;5.566;2023-03-17T09:54:23;11.95;;;7.45;;
62268;SDS011;56517;51.634;5.566;2023-03-17T09:59:53;15.77;;;8.10;;
62268;SDS011;56517;51.634;5.566;2023-03-17T10:05:19;15.90;;;7.75;;
62268;SDS011;56517;51.634;5.566;2023-03-17T10:16:04;13.27;;;7.55;;
62268;SDS011;56517;51.634;5.566;2023-03-17T10:21:33;17.60;;;8.93;;
62268;SDS011;56517;51.634;5.566;2023-03-17T10:26:55;12.73;;;7.28;;
62268;SDS011;56517;51.634;5.566;2023-03-17T10:32:17;10.32;;;7.78;;
62268;SDS011;56517;51.634;5.566;2023-03-17T10:37:38;12.55;;;8.05;;
62268;SDS011;56517;51.634;5.566;2023-03-17T10:43:01;18.85;;;7.78;;
62268;SDS011;56517;51.634;5.566;2023-03-17T10:48:23;11.50;;;6.57;;
62268;SDS011;56517;51.634;5.566;2023-03-17T10:53:44;11.30;;;7.25;;
62268;SDS011;56517;51.634;5.566;2023-03-17T10:59:06;20.23;;;8.63;;
62268;SDS011;56517;51.634;5.566;2023-03-17T11:04:29;22.05;;;8.45;;
62268;SDS011;56517;51.634;5.566;2023-03-17T11:09:50;17.42;;;7.15;;
62268;SDS011;56517;51.634;5.566;2023-03-17T11:15:13;14.25;;;6.47;;
62268;SDS011;56517;51.634;5.566;2023-03-17T11:26:11;14.57;;;8.05;;
62268;SDS011;56517;51.634;5.566;2023-03-17T11:31:39;20.67;;;8.95;;
62268;SDS011;56517;51.634;5.566;2023-03-17T11:37:10;20.67;;;8.68;;
62268;SDS011;56517;51.634;5.566;2023-03-17T11:42:36;22.40;;;8.40;;
62268;SDS011;56517;51.634;5.566;2023-03-17T11:54:34;23.27;;;8.90;;
62268;SDS011;56517;51.634;5.566;2023-03-17T12:04:50;15.40;;;6.47;;
62268;SDS011;56517;51.634;5.566;2023-03-17T12:15:49;14.15;;;6.57;;
62268;SDS011;56517;51.634;5.566;2023-03-17T12:21:21;15.55;;;7.78;;
62268;SDS011;56517;51.634;5.566;2023-03-17T12:26:49;22.92;;;8.55;;
62268;SDS011;56517;51.634;5.566;2023-03-17T12:32:18;15.35;;;6.80;;
62268;SDS011;56517;51.634;5.566;2023-03-17T12:37:40;19.90;;;8.52;;
62268;SDS011;56517;51.634;5.566;2023-03-17T12:48:36;14.10;;;6.50;;
62268;SDS011;56517;51.634;5.566;2023-03-17T12:54:01;13.25;;;6.47;;
62268;SDS011;56517;51.634;5.566;2023-03-17T12:59:23;15.25;;;7.15;;
62268;SDS011;56517;51.634;5.566;2023-03-17T13:04:49;13.57;;;7.00;;
62268;SDS011;56517;51.634;5.566;2023-03-17T13:10:17;16.23;;;7.38;;
62268;SDS011;56517;51.634;5.566;2023-03-17T13:26:22;14.40;;;6.85;;
62268;SDS011;56517;51.634;5.566;2023-03-17T13:37:24;19.23;;;6.85;;
62268;SDS011;56517;51.634;5.566;2023-03-17T14:05:18;11.90;;;6.68;;
62268;SDS011;56517;51.634;5.566;2023-03-17T14:10:40;18.13;;;7.00;;
62268;SDS011;56517;51.634;5.566;2023-03-17T14:16:05;13.80;;;7.35;;
62268;SDS011;56517;51.634;5.566;2023-03-17T14:21:30;13.30;;;6.40;;
62268;SDS011;56517;51.634;5.566;2023-03-17T14:26:51;13.70;;;6.78;;
62268;SDS011;56517;51.634;5.566;2023-03-17T14:32:13;10.90;;;7.00;;
62268;SDS011;56517;51.634;5.566;2023-03-17T14:37:36;13.00;;;6.45;;
62268;SDS011;56517;51.634;5.566;2023-03-17T14:42:57;15.02;;;7.30;;
62268;SDS011;56517;51.634;5.566;2023-03-17T14:48:21;13.98;;;7.45;;
62268;SDS011;56517;51.634;5.566;2023-03-17T14:53:43;9.82;;;6.30;;
62268;SDS011;56517;51.634;5.566;2023-03-17T14:59:07;13.48;;;7.82;;
62268;SDS011;56517;51.634;5.566;2023-03-17T15:04:29;13.65;;;6.68;;
62268;SDS011;56517;51.634;5.566;2023-03-17T15:09:56;13.55;;;6.43;;
62268;SDS011;56517;51.634;5.566;2023-03-17T15:15:24;17.13;;;7.25;;
62268;SDS011;56517;51.634;5.566;2023-03-17T15:20:46;10.07;;;5.75;;
62268;SDS011;56517;51.634;5.566;2023-03-17T15:26:18;11.93;;;6.05;;
62268;SDS011;56517;51.634;5.566;2023-03-17T15:31:40;12.48;;;5.97;;
62268;SDS011;56517;51.634;5.566;2023-03-17T15:37:01;18.80;;;6.95;;
62268;SDS011;56517;51.634;5.566;2023-03-17T15:42:23;13.13;;;6.65;;
62268;SDS011;56517;51.634;5.566;2023-03-17T15:47:45;12.95;;;5.60;;
62268;SDS011;56517;51.634;5.566;2023-03-17T15:53:07;11.88;;;6.07;;
62268;SDS011;56517;51.634;5.566;2023-03-17T15:58:29;11.93;;;6.28;;
62268;SDS011;56517;51.634;5.566;2023-03-17T16:03:50;17.88;;;6.57;;
62268;SDS011;56517;51.634;5.566;2023-03-17T16:09:14;22.08;;;8.52;;
62268;SDS011;56517;51.634;5.566;2023-03-17T16:14:35;13.73;;;6.53;;
62268;SDS011;56517;51.634;5.566;2023-03-17T16:19:56;16.30;;;6.82;;
62268;SDS011;56517;51.634;5.566;2023-03-17T16:30:39;12.95;;;6.03;;
62268;SDS011;56517;51.634;5.566;2023-03-17T16:36:00;13.45;;;6.25;;
62268;SDS011;56517;51.634;5.566;2023-03-17T16:41:22;11.18;;;6.40;;
62268;SDS011;56517;51.634;5.566;2023-03-17T16:46:43;16.73;;;6.72;;
62268;SDS011;56517;51.634;5.566;2023-03-17T16:52:04;9.15;;;5.97;;
62268;SDS011;56517;51.634;5.566;2023-03-17T16:57:25;13.63;;;6.78;;
62268;SDS011;56517;51.634;5.566;2023-03-17T17:02:46;16.38;;;6.88;;
62268;SDS011;56517;51.634;5.566;2023-03-17T17:08:07;12.10;;;6.00;;
62268;SDS011;56517;51.634;5.566;2023-03-17T17:13:28;13.40;;;6.65;;
62268;SDS011;56517;51.634;5.566;2023-03-17T17:18:49;11.75;;;5.43;;
62268;SDS011;56517;51.634;5.566;2023-03-17T17:24:11;10.68;;;4.70;;
62268;SDS011;56517;51.634;5.566;2023-03-17T17:29:32;7.97;;;4.05;;
62268;SDS011;56517;51.634;5.566;2023-03-17T17:34:53;11.57;;;5.25;;
62268;SDS011;56517;51.634;5.566;2023-03-17T17:40:16;15.40;;;6.05;;
62268;SDS011;56517;51.634;5.566;2023-03-17T17:45:38;14.70;;;5.90;;
62268;SDS011;56517;51.634;5.566;2023-03-17T17:50:59;17.23;;;5.78;;
62268;SDS011;56517;51.634;5.566;2023-03-17T17:56:20;21.42;;;7.45;;
62268;SDS011;56517;51.634;5.566;2023-03-17T18:01:41;14.02;;;5.82;;
62268;SDS011;56517;51.634;5.566;2023-03-17T18:07:02;19.70;;;7.00;;
62268;SDS011;56517;51.634;5.566;2023-03-17T18:12:23;11.85;;;5.90;;
62268;SDS011;56517;51.634;5.566;2023-03-17T18:17:44;20.00;;;6.90;;
62268;SDS011;56517;51.634;5.566;2023-03-17T18:23:05;12.63;;;5.43;;
62268;SDS011;56517;51.634;5.566;2023-03-17T18:28:26;13.88;;;5.97;;
62268;SDS011;56517;51.634;5.566;2023-03-17T18:33:47;24.52;;;8.05;;
62268;SDS011;56517;51.634;5.566;2023-03-17T18:39:09;18.75;;;6.53;;
62268;SDS011;56517;51.634;5.566;2023-03-17T18:44:30;17.60;;;6.97;;
62268;SDS011;56517;51.634;5.566;2023-03-17T18:49:51;8.95;;;4.80;;
62268;SDS011;56517;51.634;5.566;2023-03-17T18:55:13;11.65;;;5.57;;
62268;SDS011;56517;51.634;5.566;2023-03-17T19:00:34;11.00;;;5.30;;
62268;SDS011;56517;51.634;5.566;2023-03-17T19:05:55;9.18;;;5.03;;
62268;SDS011;56517;51.634;5.566;2023-03-17T19:11:16;9.63;;;4.78;;
62268;SDS011;56517;51.634;5.566;2023-03-17T19:16:37;8.77;;;5.00;;
62268;SDS011;56517;51.634;5.566;2023-03-17T19:21:59;11.15;;;5.57;;
62268;SDS011;56517;51.634;5.566;2023-03-17T19:27:20;14.45;;;5.65;;
62268;SDS011;56517;51.634;5.566;2023-03-17T19:32:40;11.38;;;5.20;;
62268;SDS011;56517;51.634;5.566;2023-03-17T19:38:01;17.38;;;6.65;;
62268;SDS011;56517;51.634;5.566;2023-03-17T19:43:23;10.98;;;5.47;;
62268;SDS011;56517;51.634;5.566;2023-03-17T19:48:44;17.40;;;7.60;;
62268;SDS011;56517;51.634;5.566;2023-03-17T19:54:06;14.93;;;6.53;;
62268;SDS011;56517;51.634;5.566;2023-03-17T19:59:27;21.20;;;7.05;;
62268;SDS011;56517;51.634;5.566;2023-03-17T20:04:48;8.73;;;4.85;;
62268;SDS011;56517;51.634;5.566;2023-03-17T20:10:09;12.88;;;5.93;;
62268;SDS011;56517;51.634;5.566;2023-03-17T20:15:31;11.38;;;5.65;;
62268;SDS011;56517;51.634;5.566;2023-03-17T20:20:52;9.30;;;5.88;;
62268;SDS011;56517;51.634;5.566;2023-03-17T20:26:13;12.20;;;6.20;;
62268;SDS011;56517;51.634;5.566;2023-03-17T20:31:35;10.63;;;5.40;;
62268;SDS011;56517;51.634;5.566;2023-03-17T20:36:56;10.98;;;5.65;;
62268;SDS011;56517;51.634;5.566;2023-03-17T20:42:17;13.88;;;6.03;;
62268;SDS011;56517;51.634;5.566;2023-03-17T20:47:38;14.90;;;6.93;;
62268;SDS011;56517;51.634;5.566;2023-03-17T20:52:59;16.95;;;7.53;;
62268;SDS011;56517;51.634;5.566;2023-03-17T20:58:21;10.52;;;6.00;;
62268;SDS011;56517;51.634;5.566;2023-03-17T21:03:43;12.20;;;6.15;;
62268;SDS011;56517;51.634;5.566;2023-03-17T21:09:04;9.63;;;5.80;;
62268;SDS011;56517;51.634;5.566;2023-03-17T21:14:25;14.63;;;6.80;;
62268;SDS011;56517;51.634;5.566;2023-03-17T21:19:47;18.55;;;7.60;;
62268;SDS011;56517;51.634;5.566;2023-03-17T21:25:08;17.17;;;7.57;;
62268;SDS011;56517;51.634;5.566;2023-03-17T21:30:30;23.65;;;7.25;;
62268;SDS011;56517;51.634;5.566;2023-03-17T21:35:51;12.95;;;6.32;;
62268;SDS011;56517;51.634;5.566;2023-03-17T21:41:18;16.70;;;8.00;;
62268;SDS011;56517;51.634;5.566;2023-03-17T21:46:41;20.80;;;8.82;;
62268;SDS011;56517;51.634;5.566;2023-03-17T21:52:02;10.13;;;6.82;;
62268;SDS011;56517;51.634;5.566;2023-03-17T21:57:23;19.00;;;8.30;;
62268;SDS011;56517;51.634;5.566;2023-03-17T22:02:44;15.35;;;7.63;;
62268;SDS011;56517;51.634;5.566;2023-03-17T22:08:06;21.02;;;9.18;;
62268;SDS011;56517;51.634;5.566;2023-03-17T22:13:27;18.45;;;8.80;;
62268;SDS011;56517;51.634;5.566;2023-03-17T22:18:48;20.33;;;9.23;;
62268;SDS011;56517;51.634;5.566;2023-03-17T22:24:08;19.75;;;8.90;;
62268;SDS011;56517;51.634;5.566;2023-03-17T22:29:30;19.38;;;9.30;;
62268;SDS011;56517;51.634;5.566;2023-03-17T22:34:52;26.65;;;11.88;;
62268;SDS011;56517;51.634;5.566;2023-03-17T22:40:12;16.30;;;9.57;;
62268;SDS011;56517;51.634;5.566;2023-03-17T22:45:34;25.77;;;9.93;;
62268;SDS011;56517;51.634;5.566;2023-03-17T22:50:55;15.50;;;9.75;;
62268;SDS011;56517;51.634;5.566;2023-03-17T22:56:19;19.55;;;9.20;;
62268;SDS011;56517;51.634;5.566;2023-03-17T23:01:40;23.77;;;10.95;;
62268;SDS011;56517;51.634;5.566;2023-03-17T23:07:01;19.67;;;8.45;;
62268;SDS011;56517;51.634;5.566;2023-03-17T23:12:22;14.85;;;8.73;;
62268;SDS011;56517;51.634;5.566;2023-03-17T23:17:44;19.73;;;10.18;;
62268;SDS011;56517;51.634;5.566;2023-03-17T23:23:05;23.25;;;11.32;;
62268;SDS011;56517;51.634;5.566;2023-03-17T23:28:26;18.27;;;8.68;;
62268;SDS011;56517;51.634;5.566;2023-03-17T23:33:48;25.30;;;11.25;;
62268;SDS011;56517;51.634;5.566;2023-03-17T23:39:09;17.00;;;8.98;;
62268;SDS011;56517;51.634;5.566;2023-03-17T23:44:30;22.83;;;11.20;;
62268;SDS011;56517;51.634;5.566;2023-03-17T23:49:51;19.70;;;10.25;;
62268;SDS011;56517;51.634;5.566;2023-03-17T23:55:13;28.90;;;13.05;;
